sensor_id;sensor_type;location;lat;lon;timestamp;pressure;altitude;pressure_sealevel;temperature;humidity
9717;BME280;4897;43.570;27.832;2022-11-14T00:00:48;100324.84;;;5.57;100.00
9717;BME280;4897;43.570;27.832;2022-11-14T00:03:15;100326.31;;;5.64;100.00
9717;BME280;4897;43.570;27.832;2022-11-14T00:05:43;100326.09;;;5.68;100.00
9717;BME280;4897;43.570;27.832;2022-11-14T00:08:14;100313.63;;;5.71;100.00
9717;BME280;4897;43.570;27.832;2022-11-14T00:10:43;100327.31;;;5.99;100.00
9717;BME280;4897;43.570;27.832;2022-11-14T00:13:10;100323.09;;;5.95;100.00
9717;BME280;4897;43.570;27.832;2022-11-14T00:15:38;100316.94;;;5.94;100.00
9717;BME280;4897;43.570;27.832;2022-11-14T00:18:05;100319.09;;;6.05;100.00
9717;BME280;4897;43.570;27.832;2022-11-14T00:20:32;100312.69;;;6.09;100.00
9717;BME280;4897;43.570;27.832;2022-11-14T00:23:00;100288.94;;;6.06;100.00
9717;BME280;4897;43.570;27.832;2022-11-14T00:25:28;100322.34;;;6.28;100.00
9717;BME280;4897;43.570;27.832;2022-11-14T00:27:56;100273.78;;;6.08;100.00
9717;BME280;4897;43.570;27.832;2022-11-14T00:30:23;100323.47;;;6.41;100.00
9717;BME280;4897;43.570;27.832;2022-11-14T00:32:51;100319.72;;;6.45;100.00
9717;BME280;4897;43.570;27.832;2022-11-14T00:42:30;100316.97;;;6.47;100.00
9717;BME280;4897;43.570;27.832;2022-11-14T00:44:59;100308.41;;;6.42;100.00
9717;BME280;4897;43.570;27.832;2022-11-14T00:47:25;100308.44;;;6.40;100.00
9717;BME280;4897;43.570;27.832;2022-11-14T00:49:54;100310.28;;;6.40;100.00
9717;BME280;4897;43.570;27.832;2022-11-14T00:52:20;100309.97;;;6.46;100.00
9717;BME280;4897;43.570;27.832;2022-11-14T00:54:47;100309.66;;;6.52;100.00
9717;BME280;4897;43.570;27.832;2022-11-14T00:57:14;100324.72;;;6.52;100.00
9717;BME280;4897;43.570;27.832;2022-11-14T00:59:41;100312.31;;;6.52;100.00
9717;BME280;4897;43.570;27.832;2022-11-14T01:02:08;100299.16;;;6.49;100.00
9717;BME280;4897;43.570;27.832;2022-11-14T01:04:35;100288.41;;;6.52;100.00
9717;BME280;4897;43.570;27.832;2022-11-14T01:07:03;100307.47;;;6.60;100.00
9717;BME280;4897;43.570;27.832;2022-11-14T01:09:30;100295.72;;;6.47;100.00
9717;BME280;4897;43.570;27.832;2022-11-14T01:11:56;100293.53;;;6.38;100.00
9717;BME280;4897;43.570;27.832;2022-11-14T01:14:23;100295.47;;;6.34;100.00
9717;BME280;4897;43.570;27.832;2022-11-14T01:16:50;100296.81;;;6.43;100.00
9717;BME280;4897;43.570;27.832;2022-11-14T01:19:17;100280.09;;;6.41;100.00
9717;BME280;4897;43.570;27.832;2022-11-14T01:21:44;100297.22;;;6.53;100.00
9717;BME280;4897;43.570;27.832;2022-11-14T01:24:12;100296.38;;;6.52;100.00
9717;BME280;4897;43.570;27.832;2022-11-14T01:26:39;100302.53;;;6.53;100.00
9717;BME280;4897;43.570;27.832;2022-11-14T01:29:06;100273.84;;;6.42;100.00
9717;BME280;4897;43.570;27.832;2022-11-14T01:31:33;100276.50;;;6.42;100.00
9717;BME280;4897;43.570;27.832;2022-11-14T01:33:59;100290.88;;;6.38;100.00
9717;BME280;4897;43.570;27.832;2022-11-14T01:36:26;100296.03;;;6.41;100.00
9717;BME280;4897;43.570;27.832;2022-11-14T01:38:53;100281.97;;;6.39;100.00
9717;BME280;4897;43.570;27.832;2022-11-14T01:41:22;100283.84;;;6.37;100.00
9717;BME280;4897;43.570;27.832;2022-11-14T01:43:49;100297.38;;;6.50;100.00
9717;BME280;4897;43.570;27.832;2022-11-14T01:46:18;100285.97;;;6.65;100.00
9717;BME280;4897;43.570;27.832;2022-11-14T01:48:50;100267.28;;;6.49;100.00
9717;BME280;4897;43.570;27.832;2022-11-14T01:51:23;100280.88;;;6.43;100.00
9717;BME280;4897;43.570;27.832;2022-11-14T01:53:53;100274.16;;;6.53;100.00
9717;BME280;4897;43.570;27.832;2022-11-14T01:56:25;100268.47;;;6.61;100.00
9717;BME280;4897;43.570;27.832;2022-11-14T01:58:58;100283.38;;;6.80;100.00
9717;BME280;4897;43.570;27.832;2022-11-14T02:01:29;100271.34;;;6.73;100.00
9717;BME280;4897;43.570;27.832;2022-11-14T02:03:58;100273.59;;;6.81;100.00
9717;BME280;4897;43.570;27.832;2022-11-14T02:06:28;100270.31;;;6.93;100.00
9717;BME280;4897;43.570;27.832;2022-11-14T02:08:57;100212.97;;;6.37;100.00
9717;BME280;4897;43.570;27.832;2022-11-14T02:11:28;100265.00;;;6.93;100.00
9717;BME280;4897;43.570;27.832;2022-11-14T02:13:56;100266.09;;;6.89;100.00
9717;BME280;4897;43.570;27.832;2022-11-14T02:16:24;100239.22;;;6.78;100.00
9717;BME280;4897;43.570;27.832;2022-11-14T02:18:51;100233.97;;;6.76;100.00
9717;BME280;4897;43.570;27.832;2022-11-14T02:21:20;100266.97;;;6.89;100.00
9717;BME280;4897;43.570;27.832;2022-11-14T02:23:46;100263.97;;;6.95;100.00
9717;BME280;4897;43.570;27.832;2022-11-14T02:26:16;100240.84;;;6.80;100.00
9717;BME280;4897;43.570;27.832;2022-11-14T02:28:43;100265.84;;;6.93;100.00
9717;BME280;4897;43.570;27.832;2022-11-14T02:31:10;100254.13;;;6.97;100.00
9717;BME280;4897;43.570;27.832;2022-11-14T02:33:37;100248.47;;;7.03;100.00
9717;BME280;4897;43.570;27.832;2022-11-14T02:36:04;100257.88;;;6.93;100.00
9717;BME280;4897;43.570;27.832;2022-11-14T02:38:32;100259.94;;;6.88;100.00
9717;BME280;4897;43.570;27.832;2022-11-14T02:41:00;100237.41;;;6.78;100.00
9717;BME280;4897;43.570;27.832;2022-11-14T02:43:27;100261.50;;;6.92;100.00
9717;BME280;4897;43.570;27.832;2022-11-14T02:45:54;100259.94;;;6.88;100.00
9717;BME280;4897;43.570;27.832;2022-11-14T02:48:21;100254.91;;;6.99;100.00
9717;BME280;4897;43.570;27.832;2022-11-14T02:50:48;100256.06;;;7.11;100.00
9717;BME280;4897;43.570;27.832;2022-11-14T02:53:15;100238.47;;;7.08;100.00
9717;BME280;4897;43.570;27.832;2022-11-14T02:55:44;100259.41;;;7.14;100.00
9717;BME280;4897;43.570;27.832;2022-11-14T02:58:11;100256.13;;;7.09;100.00
9717;BME280;4897;43.570;27.832;2022-11-14T03:00:38;100236.91;;;7.04;100.00
9717;BME280;4897;43.570;27.832;2022-11-14T03:03:04;100257.97;;;7.24;100.00
9717;BME280;4897;43.570;27.832;2022-11-14T03:05:31;100260.34;;;7.13;100.00
9717;BME280;4897;43.570;27.832;2022-11-14T03:07:58;100266.28;;;7.18;100.00
9717;BME280;4897;43.570;27.832;2022-11-14T03:10:25;100265.81;;;7.28;100.00
9717;BME280;4897;43.570;27.832;2022-11-14T03:12:54;100260.03;;;7.19;100.00
9717;BME280;4897;43.570;27.832;2022-11-14T03:15:21;100252.44;;;7.12;100.00
9717;BME280;4897;43.570;27.832;2022-11-14T03:17:49;100194.72;;;6.81;100.00
9717;BME280;4897;43.570;27.832;2022-11-14T03:20:16;100263.91;;;7.30;100.00
9717;BME280;4897;43.570;27.832;2022-11-14T03:22:43;100268.28;;;7.31;100.00
9717;BME280;4897;43.570;27.832;2022-11-14T03:25:10;100264.06;;;7.26;100.00
9717;BME280;4897;43.570;27.832;2022-11-14T03:27:36;100229.03;;;7.03;100.00
9717;BME280;4897;43.570;27.832;2022-11-14T03:30:06;100263.19;;;7.26;100.00
9717;BME280;4897;43.570;27.832;2022-11-14T03:32:33;100260.19;;;7.16;100.00
9717;BME280;4897;43.570;27.832;2022-11-14T03:35:00;100266.72;;;7.26;100.00
9717;BME280;4897;43.570;27.832;2022-11-14T03:37:27;100265.03;;;7.25;100.00
9717;BME280;4897;43.570;27.832;2022-11-14T03:39:54;100260.03;;;7.19;100.00
9717;BME280;4897;43.570;27.832;2022-11-14T03:42:20;100252.22;;;6.99;100.00
9717;BME280;4897;43.570;27.832;2022-11-14T03:44:47;100263.94;;;7.12;100.00
9717;BME280;4897;43.570;27.832;2022-11-14T03:47:15;100262.59;;;7.21;100.00
9717;BME280;4897;43.570;27.832;2022-11-14T03:49:42;100249.78;;;7.12;100.00
9717;BME280;4897;43.570;27.832;2022-11-14T03:52:10;100263.09;;;7.12;100.00
9717;BME280;4897;43.570;27.832;2022-11-14T03:54:37;100263.09;;;7.12;100.00
9717;BME280;4897;43.570;27.832;2022-11-14T03:57:04;100269.09;;;7.15;100.00
9717;BME280;4897;43.570;27.832;2022-11-14T03:59:31;100259.72;;;7.08;100.00
9717;BME280;4897;43.570;27.832;2022-11-14T04:01:58;100263.25;;;7.09;100.00
9717;BME280;4897;43.570;27.832;2022-11-14T04:04:26;100258.97;;;7.06;100.00
9717;BME280;4897;43.570;27.832;2022-11-14T04:06:53;100262.53;;;7.05;100.00
9717;BME280;4897;43.570;27.832;2022-11-14T04:09:20;100269.91;;;7.00;100.00
9717;BME280;4897;43.570;27.832;2022-11-14T04:11:47;100260.13;;;7.01;100.00
9717;BME280;4897;43.570;27.832;2022-11-14T04:14:13;100248.97;;;6.94;100.00
9717;BME280;4897;43.570;27.832;2022-11-14T04:16:40;100257.28;;;6.88;100.00
9717;BME280;4897;43.570;27.832;2022-11-14T04:19:07;100279.47;;;7.04;100.00
9717;BME280;4897;43.570;27.832;2022-11-14T04:21:35;100266.88;;;6.91;100.00
9717;BME280;4897;43.570;27.832;2022-11-14T04:24:02;100280.38;;;7.03;100.00
9717;BME280;4897;43.570;27.832;2022-11-14T04:26:29;100279.00;;;6.96;100.00
9717;BME280;4897;43.570;27.832;2022-11-14T04:28:56;100286.56;;;7.04;100.00
9717;BME280;4897;43.570;27.832;2022-11-14T04:31:23;100287.59;;;7.01;100.00
9717;BME280;4897;43.570;27.832;2022-11-14T04:33:50;100293.63;;;7.05;100.00
9717;BME280;4897;43.570;27.832;2022-11-14T04:36:17;100293.00;;;7.00;100.00
9717;BME280;4897;43.570;27.832;2022-11-14T04:38:45;100290.53;;;7.12;100.00
9717;BME280;4897;43.570;27.832;2022-11-14T04:41:12;100288.81;;;7.11;100.00
9717;BME280;4897;43.570;27.832;2022-11-14T04:43:39;100271.06;;;7.12;100.00
9717;BME280;4897;43.570;27.832;2022-11-14T04:46:06;100286.34;;;7.08;100.00
9717;BME280;4897;43.570;27.832;2022-11-14T04:48:33;100265.53;;;6.99;100.00
9717;BME280;4897;43.570;27.832;2022-11-14T04:50:59;100279.44;;;7.21;100.00
9717;BME280;4897;43.570;27.832;2022-11-14T04:53:26;100249.75;;;6.96;100.00
9717;BME280;4897;43.570;27.832;2022-11-14T04:55:55;100293.31;;;7.26;100.00
9717;BME280;4897;43.570;27.832;2022-11-14T04:58:21;100291.44;;;7.28;100.00
9717;BME280;4897;43.570;27.832;2022-11-14T05:00:48;100287.84;;;7.30;100.00
9717;BME280;4897;43.570;27.832;2022-11-14T05:03:15;100279.50;;;7.20;100.00
9717;BME280;4897;43.570;27.832;2022-11-14T05:05:42;100288.00;;;7.26;100.00
9717;BME280;4897;43.570;27.832;2022-11-14T05:08:09;100281.81;;;7.26;100.00
9717;BME280;4897;43.570;27.832;2022-11-14T05:10:36;100290.19;;;7.36;100.00
9717;BME280;4897;43.570;27.832;2022-11-14T05:13:04;100286.13;;;7.28;100.00
9717;BME280;4897;43.570;27.832;2022-11-14T05:15:31;100288.31;;;7.38;100.00
9717;BME280;4897;43.570;27.832;2022-11-14T05:17:58;100293.38;;;7.42;100.00
9717;BME280;4897;43.570;27.832;2022-11-14T05:20:24;100288.75;;;7.46;100.00
9717;BME280;4897;43.570;27.832;2022-11-14T05:22:52;100287.97;;;7.44;100.00
9717;BME280;4897;43.570;27.832;2022-11-14T05:25:19;100293.91;;;7.49;100.00
9717;BME280;4897;43.570;27.832;2022-11-14T05:27:47;100298.13;;;7.53;100.00
9717;BME280;4897;43.570;27.832;2022-11-14T05:30:15;100306.44;;;7.47;100.00
9717;BME280;4897;43.570;27.832;2022-11-14T05:32:42;100304.09;;;7.41;100.00
9717;BME280;4897;43.570;27.832;2022-11-14T05:35:09;100300.00;;;7.51;100.00
9717;BME280;4897;43.570;27.832;2022-11-14T05:37:36;100309.88;;;7.49;100.00
9717;BME280;4897;43.570;27.832;2022-11-14T05:40:04;100306.63;;;7.59;100.00
9717;BME280;4897;43.570;27.832;2022-11-14T05:42:31;100300.94;;;7.50;100.00
9717;BME280;4897;43.570;27.832;2022-11-14T05:44:58;100309.78;;;7.66;100.00
9717;BME280;4897;43.570;27.832;2022-11-14T05:47:26;100309.66;;;7.69;100.00
9717;BME280;4897;43.570;27.832;2022-11-14T05:49:53;100303.22;;;7.73;100.00
9717;BME280;4897;43.570;27.832;2022-11-14T05:52:20;100313.47;;;7.48;100.00
9717;BME280;4897;43.570;27.832;2022-11-14T05:54:47;100314.44;;;7.47;100.00
9717;BME280;4897;43.570;27.832;2022-11-14T05:57:14;100311.16;;;7.57;100.00
9717;BME280;4897;43.570;27.832;2022-11-14T05:59:41;100314.53;;;7.76;100.00
9717;BME280;4897;43.570;27.832;2022-11-14T06:02:08;100314.19;;;7.82;100.00
9717;BME280;4897;43.570;27.832;2022-11-14T06:04:36;100317.03;;;7.95;100.00
9717;BME280;4897;43.570;27.832;2022-11-14T06:07:03;100316.44;;;8.05;100.00
9717;BME280;4897;43.570;27.832;2022-11-14T06:09:30;100293.59;;;7.86;100.00
9717;BME280;4897;43.570;27.832;2022-11-14T06:11:57;100310.94;;;7.93;100.00
9717;BME280;4897;43.570;27.832;2022-11-14T06:14:24;100314.91;;;7.86;100.00
9717;BME280;4897;43.570;27.832;2022-11-14T06:16:51;100309.16;;;7.93;100.00
9717;BME280;4897;43.570;27.832;2022-11-14T06:19:17;100283.09;;;7.83;100.00
9717;BME280;4897;43.570;27.832;2022-11-14T06:21:47;100298.75;;;7.89;100.00
9717;BME280;4897;43.570;27.832;2022-11-14T06:24:14;100314.31;;;7.96;100.00
9717;BME280;4897;43.570;27.832;2022-11-14T06:26:41;100316.53;;;8.20;100.00
9717;BME280;4897;43.570;27.832;2022-11-14T06:29:08;100306.34;;;8.28;100.00
9717;BME280;4897;43.570;27.832;2022-11-14T06:31:36;100310.44;;;8.02;100.00
9717;BME280;4897;43.570;27.832;2022-11-14T06:34:03;100249.81;;;7.76;100.00
9717;BME280;4897;43.570;27.832;2022-11-14T06:36:30;100294.53;;;8.16;100.00
9717;BME280;4897;43.570;27.832;2022-11-14T06:39:06;100306.09;;;8.32;100.00
9717;BME280;4897;43.570;27.832;2022-11-14T06:41:33;100302.16;;;8.22;100.00
9717;BME280;4897;43.570;27.832;2022-11-14T06:44:00;100301.22;;;8.07;100.00
9717;BME280;4897;43.570;27.832;2022-11-14T06:46:26;100289.75;;;8.07;100.00
9717;BME280;4897;43.570;27.832;2022-11-14T06:48:53;100278.66;;;8.30;100.00
9717;BME280;4897;43.570;27.832;2022-11-14T06:51:20;100276.34;;;8.54;100.00
9717;BME280;4897;43.570;27.832;2022-11-14T06:53:49;100308.13;;;8.72;100.00
9717;BME280;4897;43.570;27.832;2022-11-14T06:56:24;100298.13;;;8.46;100.00
9717;BME280;4897;43.570;27.832;2022-11-14T06:58:51;100308.81;;;8.46;100.00
9717;BME280;4897;43.570;27.832;2022-11-14T07:01:20;100285.34;;;8.37;100.00
9717;BME280;4897;43.570;27.832;2022-11-14T07:03:48;100311.47;;;8.46;100.00
9717;BME280;4897;43.570;27.832;2022-11-14T07:06:16;100287.47;;;8.46;100.00
9717;BME280;4897;43.570;27.832;2022-11-14T07:08:44;100291.31;;;8.56;100.00
9717;BME280;4897;43.570;27.832;2022-11-14T07:11:12;100291.47;;;8.69;100.00
9717;BME280;4897;43.570;27.832;2022-11-14T07:13:48;100279.34;;;8.63;100.00
9717;BME280;4897;43.570;27.832;2022-11-14T07:16:15;100282.34;;;8.57;100.00
9717;BME280;4897;43.570;27.832;2022-11-14T07:18:42;100291.72;;;8.64;100.00
9717;BME280;4897;43.570;27.832;2022-11-14T07:21:09;100296.78;;;8.69;100.00
9717;BME280;4897;43.570;27.832;2022-11-14T07:23:38;100299.31;;;8.86;100.00
9717;BME280;4897;43.570;27.832;2022-11-14T07:26:10;100296.84;;;8.97;100.00
9717;BME280;4897;43.570;27.832;2022-11-14T07:28:39;100296.84;;;8.97;100.00
9717;BME280;4897;43.570;27.832;2022-11-14T07:31:09;100291.34;;;9.00;100.00
9717;BME280;4897;43.570;27.832;2022-11-14T07:33:37;100297.44;;;9.02;100.00
9717;BME280;4897;43.570;27.832;2022-11-14T07:36:05;100337.94;;;8.95;100.00
9717;BME280;4897;43.570;27.832;2022-11-14T07:38:33;100299.63;;;8.96;100.00
9717;BME280;4897;43.570;27.832;2022-11-14T07:41:03;100281.81;;;8.96;100.00
9717;BME280;4897;43.570;27.832;2022-11-14T07:43:30;100268.63;;;8.79;100.00
9717;BME280;4897;43.570;27.832;2022-11-14T07:46:00;100285.13;;;9.00;100.00
9717;BME280;4897;43.570;27.832;2022-11-14T07:48:29;100288.41;;;9.05;100.00
9717;BME280;4897;43.570;27.832;2022-11-14T07:50:58;100281.16;;;9.07;100.00
9717;BME280;4897;43.570;27.832;2022-11-14T07:53:26;100295.75;;;9.15;100.00
9717;BME280;4897;43.570;27.832;2022-11-14T07:55:53;100286.72;;;9.32;100.00
9717;BME280;4897;43.570;27.832;2022-11-14T07:58:20;100291.28;;;9.44;100.00
9717;BME280;4897;43.570;27.832;2022-11-14T08:00:47;100275.81;;;9.35;100.00
9717;BME280;4897;43.570;27.832;2022-11-14T08:03:14;100289.84;;;9.52;100.00
9717;BME280;4897;43.570;27.832;2022-11-14T08:05:42;100276.78;;;9.48;100.00
9717;BME280;4897;43.570;27.832;2022-11-14T08:08:09;100287.56;;;9.60;100.00
9717;BME280;4897;43.570;27.832;2022-11-14T08:10:36;100279.06;;;9.68;100.00
9717;BME280;4897;43.570;27.832;2022-11-14T08:13:04;100247.41;;;9.48;100.00
9717;BME280;4897;43.570;27.832;2022-11-14T08:15:32;100066.06;;;8.63;100.00
9717;BME280;4897;43.570;27.832;2022-11-14T08:18:00;100267.38;;;10.11;100.00
9717;BME280;4897;43.570;27.832;2022-11-14T08:20:28;100156.53;;;9.49;100.00
9717;BME280;4897;43.570;27.832;2022-11-14T08:23:02;100276.38;;;10.23;100.00
9717;BME280;4897;43.570;27.832;2022-11-14T08:25:29;100253.28;;;10.49;100.00
9717;BME280;4897;43.570;27.832;2022-11-14T08:27:57;100269.72;;;10.82;100.00
9717;BME280;4897;43.570;27.832;2022-11-14T08:30:29;100266.00;;;10.58;100.00
9717;BME280;4897;43.570;27.832;2022-11-14T08:33:00;100272.41;;;10.42;100.00
9717;BME280;4897;43.570;27.832;2022-11-14T08:35:28;100246.53;;;10.16;100.00
9717;BME280;4897;43.570;27.832;2022-11-14T08:37:55;100262.13;;;10.36;100.00
9717;BME280;4897;43.570;27.832;2022-11-14T08:40:24;100266.53;;;10.50;100.00
9717;BME280;4897;43.570;27.832;2022-11-14T08:42:51;100269.25;;;10.63;100.00
9717;BME280;4897;43.570;27.832;2022-11-14T08:45:23;100264.78;;;10.76;100.00
9717;BME280;4897;43.570;27.832;2022-11-14T08:47:50;100265.22;;;10.70;100.00
9717;BME280;4897;43.570;27.832;2022-11-14T08:50:18;100263.47;;;10.69;100.00
9717;BME280;4897;43.570;27.832;2022-11-14T08:52:48;100224.28;;;10.42;100.00
9717;BME280;4897;43.570;27.832;2022-11-14T08:55:16;100263.41;;;10.43;100.00
9717;BME280;4897;43.570;27.832;2022-11-14T08:57:45;100248.34;;;10.42;100.00
9717;BME280;4897;43.570;27.832;2022-11-14T09:00:13;100245.28;;;10.61;100.00
9717;BME280;4897;43.570;27.832;2022-11-14T09:02:40;100256.16;;;10.45;100.00
9717;BME280;4897;43.570;27.832;2022-11-14T09:05:07;100249.56;;;10.51;100.00
9717;BME280;4897;43.570;27.832;2022-11-14T09:07:34;100243.50;;;10.35;100.00
9717;BME280;4897;43.570;27.832;2022-11-14T09:10:01;100255.75;;;10.25;100.00
9717;BME280;4897;43.570;27.832;2022-11-14T09:12:30;100241.00;;;10.19;100.00
9717;BME280;4897;43.570;27.832;2022-11-14T09:14:59;100247.50;;;10.15;100.00
9717;BME280;4897;43.570;27.832;2022-11-14T09:17:26;100247.09;;;10.21;100.00
9717;BME280;4897;43.570;27.832;2022-11-14T09:19:53;100240.38;;;10.28;100.00
9717;BME280;4897;43.570;27.832;2022-11-14T09:22:20;100236.22;;;10.37;100.00
9717;BME280;4897;43.570;27.832;2022-11-14T09:24:47;100215.25;;;10.31;100.00
9717;BME280;4897;43.570;27.832;2022-11-14T09:27:16;100225.97;;;10.43;100.00
9717;BME280;4897;43.570;27.832;2022-11-14T09:29:43;100232.94;;;10.46;100.00
9717;BME280;4897;43.570;27.832;2022-11-14T09:32:11;100226.44;;;10.50;100.00
9717;BME280;4897;43.570;27.832;2022-11-14T09:34:38;100205.56;;;10.42;100.00
9717;BME280;4897;43.570;27.832;2022-11-14T09:37:09;100206.50;;;10.41;100.00
9717;BME280;4897;43.570;27.832;2022-11-14T09:39:36;100219.38;;;10.49;100.00
9717;BME280;4897;43.570;27.832;2022-11-14T09:42:27;100192.50;;;10.38;100.00
9717;BME280;4897;43.570;27.832;2022-11-14T09:45:01;100190.28;;;10.44;100.00
9717;BME280;4897;43.570;27.832;2022-11-14T09:47:35;100206.53;;;10.54;100.00
9717;BME280;4897;43.570;27.832;2022-11-14T09:50:12;100203.75;;;10.68;100.00
9717;BME280;4897;43.570;27.832;2022-11-14T09:52:43;100142.75;;;10.35;100.00
9717;BME280;4897;43.570;27.832;2022-11-14T09:55:16;100033.50;;;9.79;100.00
9717;BME280;4897;43.570;27.832;2022-11-14T09:57:44;100196.84;;;10.78;100.00
9717;BME280;4897;43.570;27.832;2022-11-14T10:00:17;100214.28;;;10.84;100.00
9717;BME280;4897;43.570;27.832;2022-11-14T10:02:56;100200.03;;;10.83;100.00
9717;BME280;4897;43.570;27.832;2022-11-14T10:08:42;100165.25;;;10.71;100.00
9717;BME280;4897;43.570;27.832;2022-11-14T10:11:15;100189.66;;;10.79;100.00
9717;BME280;4897;43.570;27.832;2022-11-14T10:14:07;100128.19;;;10.14;100.00
9717;BME280;4897;43.570;27.832;2022-11-14T10:16:48;100150.66;;;10.24;100.00
9717;BME280;4897;43.570;27.832;2022-11-14T10:19:23;100181.94;;;10.49;100.00
9717;BME280;4897;43.570;27.832;2022-11-14T10:22:07;100147.91;;;10.38;100.00
9717;BME280;4897;43.570;27.832;2022-11-14T10:27:31;100127.38;;;10.52;100.00
9717;BME280;4897;43.570;27.832;2022-11-14T10:30:08;100107.38;;;10.44;100.00
9717;BME280;4897;43.570;27.832;2022-11-14T10:32:49;100157.53;;;10.91;100.00
9717;BME280;4897;43.570;27.832;2022-11-14T10:35:22;100158.94;;;10.97;100.00
9717;BME280;4897;43.570;27.832;2022-11-14T10:37:57;100154.78;;;11.05;100.00
9717;BME280;4897;43.570;27.832;2022-11-14T10:40:34;100153.78;;;11.06;100.00
9717;BME280;4897;43.570;27.832;2022-11-14T10:43:15;100155.16;;;11.12;100.00
9717;BME280;4897;43.570;27.832;2022-11-14T10:45:48;100151.56;;;11.00;100.00
9717;BME280;4897;43.570;27.832;2022-11-14T10:48:24;100148.13;;;10.86;100.00
9717;BME280;4897;43.570;27.832;2022-11-14T10:51:02;100149.44;;;10.80;100.00
9717;BME280;4897;43.570;27.832;2022-11-14T10:53:42;100149.31;;;10.69;100.00
9717;BME280;4897;43.570;27.832;2022-11-14T10:56:11;100134.13;;;10.70;100.00
9717;BME280;4897;43.570;27.832;2022-11-14T10:58:41;100150.06;;;10.84;100.00
9717;BME280;4897;43.570;27.832;2022-11-14T11:01:31;100146.31;;;10.86;100.00
9717;BME280;4897;43.570;27.832;2022-11-14T11:04:10;100133.91;;;10.73;100.00
9717;BME280;4897;43.570;27.832;2022-11-14T11:06:39;100142.34;;;10.67;100.00
9717;BME280;4897;43.570;27.832;2022-11-14T11:09:07;100140.75;;;10.64;100.00
9717;BME280;4897;43.570;27.832;2022-11-14T11:11:57;100134.56;;;10.64;100.00
9717;BME280;4897;43.570;27.832;2022-11-14T11:14:26;100150.69;;;10.62;100.00
9717;BME280;4897;43.570;27.832;2022-11-14T11:17:14;100050.94;;;9.97;100.00
9717;BME280;4897;43.570;27.832;2022-11-14T11:19:48;100158.28;;;10.68;100.00
9717;BME280;4897;43.570;27.832;2022-11-14T11:22:35;100147.28;;;10.60;100.00
9717;BME280;4897;43.570;27.832;2022-11-14T11:25:03;100136.81;;;10.57;100.00
9717;BME280;4897;43.570;27.832;2022-11-14T11:28:03;100124.59;;;10.40;100.00
9717;BME280;4897;43.570;27.832;2022-11-14T11:30:30;100138.72;;;10.42;100.00
9717;BME280;4897;43.570;27.832;2022-11-14T11:33:13;100126.94;;;10.20;100.00
9717;BME280;4897;43.570;27.832;2022-11-14T11:35:42;100129.94;;;10.28;100.00
9717;BME280;4897;43.570;27.832;2022-11-14T11:38:29;100137.66;;;10.45;100.00
9717;BME280;4897;43.570;27.832;2022-11-14T11:41:05;100146.41;;;10.34;100.00
9717;BME280;4897;43.570;27.832;2022-11-14T11:43:43;100124.78;;;10.25;100.00
9717;BME280;4897;43.570;27.832;2022-11-14T11:46:17;100135.06;;;10.43;100.00
9717;BME280;4897;43.570;27.832;2022-11-14T11:48:48;100140.00;;;10.50;100.00
9717;BME280;4897;43.570;27.832;2022-11-14T11:51:19;100131.44;;;10.44;100.00
9717;BME280;4897;43.570;27.832;2022-11-14T11:53:57;100119.88;;;10.31;100.00
9717;BME280;4897;43.570;27.832;2022-11-14T11:56:29;100127.59;;;10.36;100.00
9717;BME280;4897;43.570;27.832;2022-11-14T11:59:04;100104.25;;;10.25;100.00
9717;BME280;4897;43.570;27.832;2022-11-14T12:01:35;100123.84;;;10.26;100.00
9717;BME280;4897;43.570;27.832;2022-11-14T12:04:02;100126.94;;;10.32;100.00
9717;BME280;4897;43.570;27.832;2022-11-14T12:06:34;100128.31;;;10.25;100.00
9717;BME280;4897;43.570;27.832;2022-11-14T12:09:13;100122.72;;;10.16;100.00
9717;BME280;4897;43.570;27.832;2022-11-14T12:11:45;100132.06;;;9.96;100.00
9717;BME280;4897;43.570;27.832;2022-11-14T12:17:38;100129.88;;;9.76;100.00
9717;BME280;4897;43.570;27.832;2022-11-14T12:20:36;100128.72;;;9.80;100.00
9717;BME280;4897;43.570;27.832;2022-11-14T12:23:25;100115.19;;;9.69;100.00
9717;BME280;4897;43.570;27.832;2022-11-14T12:26:08;100135.78;;;9.94;100.00
9717;BME280;4897;43.570;27.832;2022-11-14T12:28:49;100143.56;;;9.84;100.00
9717;BME280;4897;43.570;27.832;2022-11-14T12:31:26;100121.19;;;9.73;100.00
9717;BME280;4897;43.570;27.832;2022-11-14T12:33:57;100130.41;;;9.81;100.00
9717;BME280;4897;43.570;27.832;2022-11-14T12:36:28;100127.63;;;9.83;100.00
9717;BME280;4897;43.570;27.832;2022-11-14T12:39:01;100124.88;;;9.84;100.00
9717;BME280;4897;43.570;27.832;2022-11-14T12:41:34;100077.16;;;9.65;100.00
9717;BME280;4897;43.570;27.832;2022-11-14T12:44:31;100115.03;;;9.85;100.00
9717;BME280;4897;43.570;27.832;2022-11-14T12:47:18;100124.16;;;9.68;100.00
9717;BME280;4897;43.570;27.832;2022-11-14T12:49:59;100127.34;;;9.60;100.00
9717;BME280;4897;43.570;27.832;2022-11-14T12:52:56;100121.19;;;9.46;100.00
9717;BME280;4897;43.570;27.832;2022-11-14T12:58:43;100126.88;;;9.54;100.00
9717;BME280;4897;43.570;27.832;2022-11-14T13:01:30;100114.31;;;9.42;100.00
9717;BME280;4897;43.570;27.832;2022-11-14T13:04:15;100045.66;;;8.91;100.00
9717;BME280;4897;43.570;27.832;2022-11-14T13:06:54;100109.50;;;9.34;100.00
9717;BME280;4897;43.570;27.832;2022-11-14T13:09:34;100099.19;;;9.28;100.00
9717;BME280;4897;43.570;27.832;2022-11-14T13:12:25;100117.66;;;9.45;100.00
9717;BME280;4897;43.570;27.832;2022-11-14T13:15:27;100123.25;;;9.55;100.00
9717;BME280;4897;43.570;27.832;2022-11-14T13:18:20;100126.88;;;9.54;100.00
9717;BME280;4897;43.570;27.832;2022-11-14T13:21:16;100117.06;;;9.54;100.00
9717;BME280;4897;43.570;27.832;2022-11-14T13:24:03;100107.06;;;9.44;100.00
9717;BME280;4897;43.570;27.832;2022-11-14T13:26:51;100117.00;;;9.42;100.00
9717;BME280;4897;43.570;27.832;2022-11-14T13:29:51;100121.19;;;9.46;100.00
9717;BME280;4897;43.570;27.832;2022-11-14T13:35:53;100091.22;;;9.14;100.00
9717;BME280;4897;43.570;27.832;2022-11-14T13:51:00;100111.72;;;9.28;100.00